createdAt,value
2023-03-05T00:01:24.450Z,1.77
2023-03-05T00:03:53.487Z,1.65
2023-03-05T00:06:22.010Z,1.67
2023-03-05T00:08:51.575Z,1.30
2023-03-05T00:11:19.727Z,2.00
2023-03-05T00:13:49.675Z,1.45
2023-03-05T00:16:17.599Z,2.08
2023-03-05T00:18:46.435Z,2.33
2023-03-05T00:21:19.695Z,2.08
2023-03-05T00:23:47.941Z,2.00
2023-03-05T00:26:15.850Z,2.08
2023-03-05T00:28:44.029Z,2.20
2023-03-05T00:31:13.321Z,1.60
2023-03-05T00:33:41.584Z,1.30
2023-03-05T00:36:10.010Z,1.38
2023-03-05T00:38:39.565Z,0.73
2023-03-05T00:41:07.518Z,1.35
2023-03-05T00:43:38.449Z,1.17
2023-03-05T00:46:06.727Z,0.77
2023-03-05T00:48:36.349Z,1.20
2023-03-05T00:51:04.368Z,0.70
2023-03-05T00:53:32.610Z,1.30
2023-03-05T00:56:00.521Z,1.48
2023-03-05T00:58:28.793Z,1.33
2023-03-05T01:00:59.095Z,2.15
2023-03-05T01:03:27.560Z,1.55
2023-03-05T01:05:57.100Z,1.48
2023-03-05T01:08:25.285Z,1.40
2023-03-05T01:10:53.365Z,1.27
2023-03-05T01:13:21.666Z,1.40
2023-03-05T01:15:51.155Z,1.23
2023-03-05T01:18:20.208Z,1.27
2023-03-05T01:20:48.550Z,1.30
2023-03-05T01:23:18.341Z,1.08
2023-03-05T01:25:46.599Z,1.10
2023-03-05T01:28:14.845Z,1.67
2023-03-05T01:30:42.802Z,1.33
2023-03-05T01:33:11.207Z,1.27
2023-03-05T01:35:39.144Z,1.15
2023-03-05T01:38:07.354Z,1.10
2023-03-05T01:40:36.651Z,1.20
2023-03-05T01:43:17.985Z,0.90
2023-03-05T01:46:00.978Z,1.02
2023-03-05T01:48:29.584Z,1.15
2023-03-05T01:50:57.904Z,1.30
2023-03-05T01:53:26.176Z,1.35
2023-03-05T01:55:59.415Z,1.25
2023-03-05T01:58:27.725Z,0.98
2023-03-05T02:00:56.741Z,1.13
2023-03-05T02:03:27.996Z,1.25
2023-03-05T02:05:55.876Z,0.88
2023-03-05T02:08:26.614Z,0.80
2023-03-05T02:10:57.542Z,1.00
2023-03-05T02:13:26.823Z,0.98
2023-03-05T02:15:55.703Z,1.48
2023-03-05T02:18:23.859Z,1.00
2023-03-05T02:20:53.966Z,0.90
2023-03-05T02:23:24.289Z,0.70
2023-03-05T02:25:52.572Z,0.70
2023-03-05T02:28:24.162Z,1.02
2023-03-05T02:30:52.117Z,0.60
2023-03-05T02:33:20.813Z,0.75
2023-03-05T02:35:48.788Z,1.23
2023-03-05T02:38:17.677Z,0.50
2023-03-05T02:40:47.071Z,0.80
2023-03-05T02:43:15.400Z,0.70
2023-03-05T02:45:43.332Z,0.70
2023-03-05T02:48:11.680Z,0.55
2023-03-05T02:50:40.266Z,1.80
2023-03-05T02:53:08.562Z,0.73
2023-03-05T02:55:38.186Z,1.30
2023-03-05T02:58:07.847Z,0.50
2023-03-05T03:03:03.831Z,0.45
2023-03-05T03:05:31.813Z,0.75
2023-03-05T03:08:00.437Z,0.45
2023-03-05T03:10:28.348Z,0.75
2023-03-05T03:12:56.598Z,0.50
2023-03-05T03:15:26.068Z,0.40
2023-03-05T03:17:55.161Z,1.15
2023-03-05T03:20:23.364Z,1.02
2023-03-05T03:22:51.707Z,0.63
2023-03-05T03:25:20.985Z,1.02
2023-03-05T03:27:49.242Z,0.90
2023-03-05T03:33:56.282Z,0.77
2023-03-05T03:38:52.234Z,1.00
2023-03-05T03:41:20.374Z,0.70
2023-03-05T03:43:48.647Z,0.70
2023-03-05T03:46:16.567Z,0.63
2023-03-05T03:48:44.795Z,1.02
2023-03-05T03:51:14.104Z,0.68
2023-03-05T03:53:42.288Z,0.60
2023-03-05T03:56:10.301Z,0.80
2023-03-05T03:58:38.529Z,0.47
2023-03-05T04:01:06.586Z,0.70
2023-03-05T04:03:34.761Z,0.63
2023-03-05T04:06:02.827Z,0.50
2023-03-05T04:08:32.565Z,0.57
2023-03-05T04:13:28.526Z,0.50
2023-03-05T04:15:56.773Z,0.47
2023-03-05T04:18:25.364Z,0.35
2023-03-05T04:20:53.260Z,0.38
2023-03-05T04:23:21.421Z,0.50
2023-03-05T04:25:50.720Z,0.43
2023-03-05T04:28:19.265Z,0.38
2023-03-05T04:30:47.357Z,0.80
2023-03-05T04:33:15.995Z,0.68
2023-03-05T04:35:43.886Z,0.60
2023-03-05T04:38:12.449Z,0.80
2023-03-05T04:40:40.532Z,0.75
2023-03-05T04:43:10.124Z,0.70
2023-03-05T04:48:06.347Z,0.80
2023-03-05T04:50:34.514Z,0.90
2023-03-05T04:53:02.992Z,0.90
2023-03-05T04:55:31.186Z,0.90
2023-03-05T04:57:59.392Z,0.60
2023-03-05T05:00:28.775Z,0.70
2023-03-05T05:02:57.117Z,0.30
2023-03-05T05:05:26.767Z,0.70
2023-03-05T05:07:58.452Z,0.85
2023-03-05T05:10:27.033Z,0.50
2023-03-05T05:12:55.235Z,0.80
2023-03-05T05:15:23.402Z,1.00
2023-03-05T05:17:53.189Z,1.08
2023-03-05T05:20:21.135Z,0.90
2023-03-05T05:22:49.311Z,1.10
2023-03-05T05:25:17.293Z,0.90
2023-03-05T05:27:51.496Z,1.50
2023-03-05T05:30:19.473Z,0.90
2023-03-05T05:32:47.643Z,1.25
2023-03-05T05:35:16.990Z,0.80
2023-03-05T05:37:45.182Z,0.95
2023-03-05T05:40:13.590Z,1.20
2023-03-05T05:42:41.781Z,0.93
2023-03-05T05:45:10.820Z,0.80
2023-03-05T05:47:39.062Z,1.15
2023-03-05T05:50:07.845Z,1.17
2023-03-05T05:52:37.427Z,1.38
2023-03-05T05:57:33.578Z,1.15
2023-03-05T06:00:01.433Z,2.33
2023-03-05T06:02:29.603Z,2.97
2023-03-05T06:04:58.401Z,1.75
2023-03-05T06:07:26.625Z,1.67
2023-03-05T06:09:55.935Z,1.60
2023-03-05T06:12:24.166Z,1.23
2023-03-05T06:14:52.038Z,1.08
2023-03-05T06:17:29.953Z,1.30
2023-03-05T06:19:58.434Z,1.30
2023-03-05T06:22:26.765Z,1.30
2023-03-05T06:24:56.084Z,1.40
2023-03-05T06:27:24.275Z,1.23
2023-03-05T06:29:53.523Z,1.10
2023-03-05T06:32:21.930Z,0.93
2023-03-05T06:34:50.041Z,0.73
2023-03-05T06:37:18.254Z,0.63
2023-03-05T06:39:46.353Z,1.13
2023-03-05T06:42:17.752Z,1.00
2023-03-05T06:44:47.276Z,0.98
2023-03-05T06:47:16.489Z,0.70
2023-03-05T06:49:44.408Z,0.57
2023-03-05T06:52:12.909Z,0.40
2023-03-05T06:54:40.982Z,0.82
2023-03-05T06:57:10.471Z,0.40
2023-03-05T06:59:39.819Z,0.57
2023-03-05T07:02:10.725Z,0.50
2023-03-05T07:04:39.090Z,0.55
2023-03-05T07:07:07.503Z,0.43
2023-03-05T07:09:35.495Z,0.50
2023-03-05T07:12:03.772Z,0.40
2023-03-05T07:14:31.767Z,0.55
2023-03-05T07:17:01.327Z,0.60
2023-03-05T07:19:29.219Z,0.43
2023-03-05T07:21:57.444Z,0.70
2023-03-05T07:24:29.842Z,1.65
2023-03-05T07:26:58.537Z,0.35
2023-03-05T07:29:26.804Z,0.40
2023-03-05T07:31:55.647Z,0.88
2023-03-05T07:34:27.188Z,0.90
2023-03-05T07:36:55.824Z,0.90
2023-03-05T07:39:23.711Z,0.85
2023-03-05T07:41:52.805Z,0.88
2023-03-05T07:44:23.184Z,1.05
2023-03-05T07:46:51.427Z,1.10
2023-03-05T07:49:19.340Z,0.60
2023-03-05T07:51:48.946Z,0.90
2023-03-05T07:54:16.998Z,0.73
2023-03-05T07:56:45.188Z,0.63
2023-03-05T07:59:13.942Z,0.50
2023-03-05T08:01:42.371Z,0.50
2023-03-05T08:04:11.137Z,0.52
2023-03-05T08:06:40.426Z,0.47
2023-03-05T08:09:09.741Z,0.70
2023-03-05T08:11:37.901Z,0.70
2023-03-05T08:14:05.918Z,1.10
2023-03-05T08:16:34.257Z,0.52
2023-03-05T08:19:02.415Z,0.70
2023-03-05T08:21:33.518Z,0.45
2023-03-05T08:24:01.988Z,0.57
2023-03-05T08:26:32.324Z,0.70
2023-03-05T08:29:00.406Z,0.43
2023-03-05T08:31:30.315Z,0.90
2023-03-05T08:33:59.066Z,0.40
2023-03-05T08:36:27.365Z,0.63
2023-03-05T08:38:55.977Z,0.68
2023-03-05T08:41:24.543Z,0.70
2023-03-05T08:43:53.818Z,0.52
2023-03-05T08:46:22.055Z,0.82
2023-03-05T08:48:50.149Z,0.52
2023-03-05T08:51:19.170Z,0.40
2023-03-05T08:53:47.574Z,0.55
2023-03-05T08:56:16.148Z,0.88
2023-03-05T08:58:44.411Z,0.50
2023-03-05T09:01:14.095Z,0.60
2023-03-05T09:06:12.360Z,0.50
2023-03-05T09:08:40.710Z,0.40
2023-03-05T09:11:09.899Z,0.45
2023-03-05T09:13:53.115Z,0.47
2023-03-05T09:16:27.871Z,0.30
2023-03-05T09:18:55.832Z,0.43
2023-03-05T09:21:24.053Z,0.40
2023-03-05T09:23:52.076Z,0.50
2023-03-05T09:26:20.704Z,0.60
2023-03-05T09:28:48.931Z,0.73
2023-03-05T09:31:17.378Z,0.30
2023-03-05T09:33:48.344Z,0.22
2023-03-05T09:36:18.569Z,0.50
2023-03-05T09:38:46.773Z,0.20
2023-03-05T09:41:17.453Z,0.50
2023-03-05T09:43:48.830Z,0.50
2023-03-05T09:46:26.013Z,0.40
2023-03-05T09:48:58.922Z,0.17
2023-03-05T09:51:29.328Z,0.95
2023-03-05T09:54:03.058Z,0.40
2023-03-05T09:56:32.996Z,0.63
2023-03-05T10:01:32.149Z,0.40
2023-03-05T10:04:05.138Z,0.60
2023-03-05T10:06:35.768Z,0.45
2023-03-05T10:09:05.240Z,0.32
2023-03-05T10:11:41.965Z,0.25
2023-03-05T10:14:15.754Z,0.20
2023-03-05T10:17:01.865Z,0.20
2023-03-05T10:19:40.789Z,0.38
2023-03-05T10:22:15.540Z,0.10
2023-03-05T10:24:50.498Z,0.25
2023-03-05T10:27:21.122Z,0.52
2023-03-05T10:29:57.256Z,0.22
2023-03-05T10:32:36.491Z,0.10
2023-03-05T10:35:23.594Z,0.17
2023-03-05T10:38:09.752Z,0.20
2023-03-05T10:40:40.312Z,0.47
2023-03-05T10:43:14.279Z,0.28
2023-03-05T10:45:45.429Z,0.32
2023-03-05T10:48:16.642Z,0.40
2023-03-05T10:50:47.815Z,0.40
2023-03-05T10:53:18.142Z,0.50
2023-03-05T10:55:47.462Z,0.70
2023-03-05T10:58:16.573Z,0.28
2023-03-05T11:00:59.351Z,0.35
2023-03-05T11:03:27.606Z,0.30
2023-03-05T11:06:00.453Z,0.28
2023-03-05T11:08:32.672Z,0.20
2023-03-05T11:11:05.976Z,0.20
2023-03-05T11:13:34.949Z,0.25
2023-03-05T11:16:04.028Z,0.20
2023-03-05T11:18:34.708Z,0.30
2023-03-05T11:21:13.508Z,0.15
2023-03-05T11:23:41.689Z,0.30
2023-03-05T11:26:20.556Z,0.10
2023-03-05T11:28:59.962Z,0.20
2023-03-05T11:31:28.565Z,0.10
2023-03-05T11:33:58.571Z,0.40
2023-03-05T11:36:27.697Z,0.30
2023-03-05T11:41:30.803Z,0.38
2023-03-05T11:44:00.458Z,0.30
2023-03-05T11:46:29.170Z,0.30
2023-03-05T11:48:57.648Z,0.17
2023-03-05T11:51:28.021Z,0.45
2023-03-05T11:53:58.688Z,0.45
2023-03-05T11:56:28.063Z,0.40
2023-03-05T11:59:00.566Z,0.35
2023-03-05T12:01:29.738Z,0.50
2023-03-05T12:06:29.831Z,0.13
2023-03-05T12:09:00.399Z,0.43
2023-03-05T12:11:29.260Z,0.30
2023-03-05T12:14:00.243Z,0.15
2023-03-05T12:16:31.062Z,0.20
2023-03-05T12:19:03.598Z,0.30
2023-03-05T12:21:34.876Z,0.40
2023-03-05T12:24:04.970Z,0.60
2023-03-05T12:26:51.234Z,0.40
2023-03-05T12:29:30.876Z,0.52
2023-03-05T12:34:38.413Z,0.30
2023-03-05T12:39:49.792Z,0.30
2023-03-05T12:42:36.407Z,0.38
2023-03-05T12:45:26.085Z,0.20
2023-03-05T12:48:19.933Z,0.30
2023-03-05T12:50:51.882Z,0.20
2023-03-05T12:53:21.059Z,0.30
2023-03-05T12:58:19.358Z,0.40
2023-03-05T13:00:50.439Z,0.50
2023-03-05T13:03:19.985Z,0.40
2023-03-05T13:05:53.649Z,0.50
2023-03-05T13:08:23.252Z,0.43
2023-03-05T13:10:52.941Z,0.30
2023-03-05T13:15:50.776Z,0.30
2023-03-05T13:18:21.119Z,0.38
2023-03-05T13:20:52.248Z,0.40
2023-03-05T13:23:22.970Z,0.60
2023-03-05T13:25:58.887Z,0.50
2023-03-05T13:28:27.222Z,0.40
2023-03-05T13:30:56.390Z,0.43
2023-03-05T13:33:35.579Z,0.50
2023-03-05T13:38:35.312Z,0.45
2023-03-05T13:41:19.609Z,0.40
2023-03-05T13:43:48.863Z,0.40
2023-03-05T13:46:24.125Z,0.50
2023-03-05T13:48:52.280Z,0.50
2023-03-05T13:51:20.527Z,0.40
2023-03-05T13:53:50.656Z,0.40
2023-03-05T13:56:20.118Z,0.55
2023-03-05T13:58:53.777Z,0.50
2023-03-05T14:01:26.722Z,0.40
2023-03-05T14:03:56.119Z,0.70
2023-03-05T14:06:25.343Z,0.68
2023-03-05T14:08:55.590Z,0.60
2023-03-05T14:11:23.795Z,0.40
2023-03-05T14:13:59.453Z,0.25
2023-03-05T14:16:32.717Z,0.40
2023-03-05T14:19:01.379Z,0.30
2023-03-05T14:21:45.018Z,0.40
2023-03-05T14:24:16.552Z,0.17
2023-03-05T14:26:49.756Z,0.20
2023-03-05T14:29:19.250Z,0.52
2023-03-05T14:31:50.440Z,0.30
2023-03-05T14:34:22.495Z,0.50
2023-03-05T14:36:51.461Z,0.25
2023-03-05T14:39:29.075Z,0.20
2023-03-05T14:41:58.396Z,0.28
2023-03-05T14:44:26.737Z,0.40
2023-03-05T14:46:55.174Z,0.28
2023-03-05T14:49:23.425Z,0.35
2023-03-05T14:51:51.624Z,0.20
2023-03-05T14:54:20.707Z,0.47
2023-03-05T14:59:22.593Z,0.38
2023-03-05T15:01:51.569Z,0.20
2023-03-05T15:04:21.412Z,0.20
2023-03-05T15:06:51.287Z,0.20
2023-03-05T15:09:21.180Z,0.40
2023-03-05T15:11:52.549Z,0.20
2023-03-05T15:14:22.496Z,0.30
2023-03-05T15:16:50.734Z,0.17
2023-03-05T15:19:19.502Z,0.50
2023-03-05T15:21:47.709Z,0.30
2023-03-05T15:24:17.790Z,0.30
2023-03-05T15:26:46.027Z,0.30
2023-03-05T15:29:13.936Z,0.38
2023-03-05T15:31:43.631Z,0.40
2023-03-05T15:34:12.012Z,0.40
2023-03-05T15:36:40.798Z,0.40
2023-03-05T15:39:09.739Z,0.50
2023-03-05T15:41:38.029Z,0.55
2023-03-05T15:44:06.605Z,0.75
2023-03-05T15:46:35.425Z,0.52
2023-03-05T15:49:07.712Z,0.50
2023-03-05T15:51:35.896Z,0.50
2023-03-05T15:54:06.171Z,0.52
2023-03-05T15:56:34.587Z,0.50
2023-03-05T15:59:03.086Z,0.55
2023-03-05T16:01:31.446Z,0.40
2023-03-05T16:03:59.466Z,0.43
2023-03-05T16:06:30.595Z,0.60
2023-03-05T16:09:00.601Z,0.50
2023-03-05T16:11:30.134Z,0.47
2023-03-05T16:14:00.270Z,0.55
2023-03-05T16:16:29.156Z,0.70
2023-03-05T16:18:57.668Z,0.55
2023-03-05T16:21:26.935Z,0.90
2023-03-05T16:23:59.576Z,1.58
2023-03-05T16:26:29.563Z,0.90
2023-03-05T16:28:57.520Z,0.85
2023-03-05T16:31:30.319Z,1.20
2023-03-05T16:33:58.293Z,1.38
2023-03-05T16:36:30.551Z,0.80
2023-03-05T16:39:00.393Z,1.17
2023-03-05T16:41:31.258Z,1.05
2023-03-05T16:43:59.617Z,0.77
2023-03-05T16:46:29.165Z,0.70
2023-03-05T16:48:57.202Z,1.00
2023-03-05T16:51:25.943Z,0.90
2023-03-05T16:53:55.617Z,1.00
2023-03-05T16:56:26.246Z,1.10
2023-03-05T16:58:56.119Z,0.80
2023-03-05T17:01:24.776Z,0.85
2023-03-05T17:03:55.476Z,1.30
2023-03-05T17:06:25.101Z,1.60
2023-03-05T17:08:53.146Z,0.68
2023-03-05T17:11:21.464Z,0.75
2023-03-05T17:13:50.953Z,0.85
2023-03-05T17:16:20.169Z,0.70
2023-03-05T17:18:51.633Z,0.68
2023-03-05T17:21:19.894Z,0.50
2023-03-05T17:23:47.975Z,0.80
2023-03-05T17:26:17.831Z,0.90
2023-03-05T17:28:45.967Z,1.13
2023-03-05T17:31:15.757Z,1.40
2023-03-05T17:36:16.329Z,1.55
2023-03-05T17:38:44.908Z,1.65
2023-03-05T17:41:13.437Z,1.88
2023-03-05T17:43:41.453Z,2.13
2023-03-05T17:46:12.402Z,2.03
2023-03-05T17:48:41.734Z,1.55
2023-03-05T17:51:11.441Z,1.20
2023-03-05T17:53:40.385Z,0.70
2023-03-05T17:56:09.405Z,0.40
2023-03-05T17:58:38.000Z,1.15
2023-03-05T18:01:06.875Z,0.73
2023-03-05T18:03:34.942Z,1.40
2023-03-05T18:06:05.210Z,1.42
2023-03-05T18:08:33.144Z,1.90
2023-03-05T18:11:01.354Z,1.90
2023-03-05T18:13:29.342Z,1.55
2023-03-05T18:15:59.141Z,1.73
2023-03-05T18:18:27.083Z,2.10
2023-03-05T18:20:57.898Z,1.87
2023-03-05T18:23:27.489Z,1.23
2023-03-05T18:25:55.729Z,2.30
2023-03-05T18:28:25.832Z,2.15
2023-03-05T18:30:54.415Z,2.03
2023-03-05T18:33:23.326Z,2.30
2023-03-05T18:35:53.125Z,1.75
2023-03-05T18:38:21.862Z,1.88
2023-03-05T18:40:52.267Z,2.08
2023-03-05T18:43:21.651Z,1.20
2023-03-05T18:45:50.509Z,0.55
2023-03-05T18:48:18.680Z,1.50
2023-03-05T18:50:47.152Z,2.07
2023-03-05T18:53:15.916Z,1.45
2023-03-05T18:55:45.007Z,1.58
2023-03-05T18:58:15.541Z,2.05
2023-03-05T19:00:47.129Z,1.88
2023-03-05T19:03:17.268Z,1.88
2023-03-05T19:05:46.064Z,1.55
2023-03-05T19:08:14.204Z,1.95
2023-03-05T19:10:42.464Z,0.87
2023-03-05T19:13:39.688Z,1.45
2023-03-05T19:16:11.262Z,0.88
2023-03-05T19:18:57.225Z,1.40
2023-03-05T19:21:25.872Z,1.27
2023-03-05T19:23:53.916Z,1.73
2023-03-05T19:26:22.276Z,1.15
2023-03-05T19:28:52.008Z,0.98
2023-03-05T19:31:21.669Z,1.00
2023-03-05T19:33:49.721Z,1.95
2023-03-05T19:36:18.492Z,1.73
2023-03-05T19:38:48.659Z,1.23
2023-03-05T19:41:19.772Z,1.38
2023-03-05T19:43:52.917Z,1.48
2023-03-05T19:46:22.894Z,1.40
2023-03-05T19:48:50.976Z,1.30
2023-03-05T19:51:20.214Z,1.20
2023-03-05T19:53:49.135Z,1.42
2023-03-05T19:56:17.777Z,1.30
2023-03-05T19:58:46.362Z,1.45
2023-03-05T20:01:15.840Z,0.93
2023-03-05T20:03:46.127Z,1.20
2023-03-05T20:06:14.494Z,1.27
2023-03-05T20:08:42.681Z,1.45
2023-03-05T20:11:11.572Z,1.40
2023-03-05T20:13:40.152Z,1.23
2023-03-05T20:16:14.833Z,1.97
2023-03-05T20:18:42.780Z,1.05
2023-03-05T20:21:21.858Z,1.48
2023-03-05T20:23:51.448Z,1.73
2023-03-05T20:26:21.310Z,1.25
2023-03-05T20:28:50.659Z,2.08
2023-03-05T20:31:19.335Z,1.25
2023-03-05T20:33:47.944Z,1.60
2023-03-05T20:36:20.430Z,1.58
2023-03-05T20:38:50.236Z,1.30
2023-03-05T20:41:20.834Z,1.10
2023-03-05T20:43:49.657Z,1.08
2023-03-05T20:46:19.073Z,1.88
2023-03-05T20:48:49.801Z,1.55
2023-03-05T20:51:22.653Z,0.98
2023-03-05T20:53:50.710Z,1.35
2023-03-05T20:56:19.372Z,1.35
2023-03-05T20:58:47.288Z,1.58
2023-03-05T21:01:15.497Z,1.52
2023-03-05T21:03:43.404Z,1.17
2023-03-05T21:06:11.735Z,0.85
2023-03-05T21:08:41.117Z,1.33
2023-03-05T21:11:12.436Z,1.08
2023-03-05T21:13:40.454Z,1.63
2023-03-05T21:16:09.464Z,1.27
2023-03-05T21:18:37.463Z,1.58
2023-03-05T21:21:05.832Z,1.48
2023-03-05T21:23:33.899Z,1.05
2023-03-05T21:26:04.620Z,1.33
2023-03-05T21:28:33.194Z,1.40
2023-03-05T21:31:07.276Z,1.58
2023-03-05T21:33:36.289Z,1.30
2023-03-05T21:36:05.240Z,1.25
2023-03-05T21:38:34.175Z,1.90
2023-03-05T21:41:04.821Z,1.42
2023-03-05T21:43:33.333Z,1.40
2023-03-05T21:46:03.139Z,0.90
2023-03-05T21:48:31.691Z,1.50
2023-03-05T21:50:59.994Z,1.60
2023-03-05T21:53:28.067Z,1.50
2023-03-05T21:56:21.384Z,1.25
2023-03-05T21:58:51.306Z,1.33
2023-03-05T22:01:21.253Z,1.58
2023-03-05T22:03:49.979Z,1.48
2023-03-05T22:06:19.393Z,1.00
2023-03-05T22:08:48.381Z,1.20
2023-03-05T22:13:44.635Z,1.10
2023-03-05T22:16:21.086Z,0.90
2023-03-05T22:18:49.518Z,1.35
2023-03-05T22:21:19.102Z,1.27
2023-03-05T22:23:47.052Z,1.38
2023-03-05T22:26:15.294Z,1.17
2023-03-05T22:28:43.683Z,0.98
2023-03-05T22:31:11.940Z,0.70
2023-03-05T22:33:41.411Z,1.05
2023-03-05T22:38:37.744Z,1.20
2023-03-05T22:41:08.367Z,0.95
2023-03-05T22:43:36.564Z,1.30
2023-03-05T22:46:09.992Z,1.02
2023-03-05T22:48:38.180Z,1.23
2023-03-05T22:51:07.785Z,0.90
2023-03-05T22:53:36.018Z,1.40
2023-03-05T22:56:06.813Z,0.90
2023-03-05T22:58:34.987Z,0.70
2023-03-05T23:01:02.958Z,1.48
2023-03-05T23:03:31.188Z,0.55
2023-03-05T23:05:59.191Z,1.25
2023-03-05T23:08:29.012Z,0.95
2023-03-05T23:13:24.840Z,0.65
2023-03-05T23:15:52.744Z,0.70
2023-03-05T23:18:20.991Z,1.20
2023-03-05T23:20:48.897Z,0.88
2023-03-05T23:23:17.125Z,0.70
2023-03-05T23:25:46.680Z,1.17
2023-03-05T23:28:14.842Z,1.02
2023-03-05T23:30:43.305Z,1.60
2023-03-05T23:33:14.586Z,0.93
2023-03-05T23:35:43.694Z,1.15
2023-03-05T23:38:13.566Z,0.93
2023-03-05T23:40:42.419Z,0.90
2023-03-05T23:43:12.085Z,0.95
2023-03-05T23:48:08.103Z,1.05
2023-03-05T23:50:38.979Z,1.20
2023-03-05T23:53:07.596Z,0.77
2023-03-05T23:55:36.400Z,1.30
2023-03-05T23:58:04.703Z,1.00
